sensor_id;sensor_type;location;lat;lon;timestamp;pressure;altitude;pressure_sealevel;temperature;humidity
36260;BME280;22296;50.824;5.644;2023-03-21T00:01:28;100846.09;;;15.12;59.51
36260;BME280;22296;50.824;5.644;2023-03-21T00:03:55;100838.06;;;15.11;59.55
36260;BME280;22296;50.824;5.644;2023-03-21T00:06:22;100837.25;;;15.10;59.62
36260;BME280;22296;50.824;5.644;2023-03-21T00:08:49;100833.34;;;15.11;59.57
36260;BME280;22296;50.824;5.644;2023-03-21T00:11:16;100829.25;;;15.09;59.70
36260;BME280;22296;50.824;5.644;2023-03-21T00:13:43;100832.84;;;15.09;59.77
36260;BME280;22296;50.824;5.644;2023-03-21T00:16:12;100826.78;;;15.07;59.79
36260;BME280;22296;50.824;5.644;2023-03-21T00:18:52;100825.16;;;15.06;59.60
36260;BME280;22296;50.824;5.644;2023-03-21T00:21:20;100825.94;;;15.07;59.75
36260;BME280;22296;50.824;5.644;2023-03-21T00:24:07;100816.31;;;15.04;59.81
36260;BME280;22296;50.824;5.644;2023-03-21T00:26:34;100817.47;;;15.03;59.85
36260;BME280;22296;50.824;5.644;2023-03-21T00:29:04;100809.13;;;15.03;59.79
36260;BME280;22296;50.824;5.644;2023-03-21T00:31:31;100809.13;;;15.03;59.91
36260;BME280;22296;50.824;5.644;2023-03-21T00:33:58;100801.94;;;15.02;60.05
36260;BME280;22296;50.824;5.644;2023-03-21T00:36:25;100804.22;;;15.00;59.83
36260;BME280;22296;50.824;5.644;2023-03-21T00:38:52;100799.50;;;15.01;59.83
36260;BME280;22296;50.824;5.644;2023-03-21T00:41:19;100797.84;;;15.00;59.85
36260;BME280;22296;50.824;5.644;2023-03-21T00:44:06;100794.72;;;15.01;59.86
36260;BME280;22296;50.824;5.644;2023-03-21T00:46:33;100794.25;;;14.99;59.99
36260;BME280;22296;50.824;5.644;2023-03-21T00:49:12;100789.81;;;14.98;60.08
36260;BME280;22296;50.824;5.644;2023-03-21T00:51:39;100789.81;;;14.98;60.08
36260;BME280;22296;50.824;5.644;2023-03-21T00:54:10;100787.69;;;14.95;60.08
36260;BME280;22296;50.824;5.644;2023-03-21T00:56:39;100788.19;;;14.97;60.06
36260;BME280;22296;50.824;5.644;2023-03-21T00:59:05;100789.03;;;14.98;60.01
36260;BME280;22296;50.824;5.644;2023-03-21T01:01:32;100771.53;;;14.97;59.96
36260;BME280;22296;50.824;5.644;2023-03-21T01:04:05;100781.81;;;14.97;59.96
36260;BME280;22296;50.824;5.644;2023-03-21T01:06:40;100769.69;;;14.93;59.98
36260;BME280;22296;50.824;5.644;2023-03-21T01:09:11;100773.00;;;14.95;60.10
36260;BME280;22296;50.824;5.644;2023-03-21T01:11:39;100766.63;;;14.94;60.15
36260;BME280;22296;50.824;5.644;2023-03-21T01:14:10;100764.16;;;14.93;60.17
36260;BME280;22296;50.824;5.644;2023-03-21T01:16:52;100760.25;;;14.94;60.08
36260;BME280;22296;50.824;5.644;2023-03-21T01:19:21;100751.44;;;14.92;60.17
36260;BME280;22296;50.824;5.644;2023-03-21T01:22:10;100746.69;;;14.92;60.17
36260;BME280;22296;50.824;5.644;2023-03-21T01:24:37;100745.03;;;14.91;60.11
36260;BME280;22296;50.824;5.644;2023-03-21T01:27:17;100739.00;;;14.89;60.22
36260;BME280;22296;50.824;5.644;2023-03-21T01:29:44;100737.84;;;14.90;60.22
36260;BME280;22296;50.824;5.644;2023-03-21T01:32:11;100734.59;;;14.88;60.31
36260;BME280;22296;50.824;5.644;2023-03-21T01:34:38;100728.22;;;14.88;60.33
36260;BME280;22296;50.824;5.644;2023-03-21T01:37:05;100732.94;;;14.87;60.37
36260;BME280;22296;50.824;5.644;2023-03-21T01:39:41;100726.56;;;14.87;60.32
36260;BME280;22296;50.824;5.644;2023-03-21T01:42:12;100714.97;;;14.84;60.50
36260;BME280;22296;50.824;5.644;2023-03-21T01:47:56;100720.22;;;14.86;60.34
36260;BME280;22296;50.824;5.644;2023-03-21T01:50:32;100720.53;;;14.84;60.68
36260;BME280;22296;50.824;5.644;2023-03-21T01:53:15;100720.22;;;14.86;60.37
36260;BME280;22296;50.824;5.644;2023-03-21T01:55:42;100720.22;;;14.86;60.46
36260;BME280;22296;50.824;5.644;2023-03-21T01:58:29;100705.03;;;14.83;60.48
36260;BME280;22296;50.824;5.644;2023-03-21T02:01:06;100708.09;;;14.82;60.66
36260;BME280;22296;50.824;5.644;2023-03-21T02:03:50;100700.25;;;14.84;60.29
36260;BME280;22296;50.824;5.644;2023-03-21T02:06:37;100696.69;;;14.83;60.46
36260;BME280;22296;50.824;5.644;2023-03-21T02:09:19;100694.22;;;14.82;60.52
36260;BME280;22296;50.824;5.644;2023-03-21T02:11:48;100687.53;;;14.83;60.47
36260;BME280;22296;50.824;5.644;2023-03-21T02:14:17;100680.34;;;14.82;60.41
36260;BME280;22296;50.824;5.644;2023-03-21T02:17:28;100689.97;;;14.84;60.19
36260;BME280;22296;50.824;5.644;2023-03-21T02:23:14;100680.34;;;14.82;60.39
36260;BME280;22296;50.824;5.644;2023-03-21T02:32:12;100668.41;;;14.81;60.38
36260;BME280;22296;50.824;5.644;2023-03-21T02:35:27;100663.19;;;14.80;60.49
36260;BME280;22296;50.824;5.644;2023-03-21T02:40:43;100658.78;;;14.79;60.41
36260;BME280;22296;50.824;5.644;2023-03-21T02:43:35;100657.94;;;14.78;60.35
36260;BME280;22296;50.824;5.644;2023-03-21T02:46:10;100651.91;;;14.76;60.62
36260;BME280;22296;50.824;5.644;2023-03-21T02:51:21;100643.59;;;14.76;60.43
36260;BME280;22296;50.824;5.644;2023-03-21T02:53:57;100649.97;;;14.77;60.43
36260;BME280;22296;50.824;5.644;2023-03-21T02:56:46;100649.78;;;14.73;60.78
36260;BME280;22296;50.824;5.644;2023-03-21T02:59:15;100641.94;;;14.75;60.45
36260;BME280;22296;50.824;5.644;2023-03-21T03:01:43;100649.13;;;14.76;60.41
36260;BME280;22296;50.824;5.644;2023-03-21T03:04:18;100637.22;;;14.76;60.54
36260;BME280;22296;50.824;5.644;2023-03-21T03:23:30;100641.47;;;14.73;60.65
36260;BME280;22296;50.824;5.644;2023-03-21T03:26:08;100638.50;;;14.70;60.57
36260;BME280;22296;50.824;5.644;2023-03-21T03:28:43;100640.16;;;14.71;60.61
36260;BME280;22296;50.824;5.644;2023-03-21T03:31:20;100647.34;;;14.72;60.71
36260;BME280;22296;50.824;5.644;2023-03-21T03:33:59;100635.41;;;14.71;60.48
36260;BME280;22296;50.824;5.644;2023-03-21T03:36:31;100632.94;;;14.70;60.57
36260;BME280;22296;50.824;5.644;2023-03-21T03:39:14;100640.97;;;14.71;60.48
36260;BME280;22296;50.824;5.644;2023-03-21T03:41:57;100639.31;;;14.70;60.42
36260;BME280;22296;50.824;5.644;2023-03-21T03:44:49;100623.81;;;14.69;60.59
36260;BME280;22296;50.824;5.644;2023-03-21T03:47:33;100628.88;;;14.67;60.66
36260;BME280;22296;50.824;5.644;2023-03-21T03:50:22;100624.97;;;14.68;60.70
36260;BME280;22296;50.824;5.644;2023-03-21T03:52:58;100624.13;;;14.68;60.52
36260;BME280;22296;50.824;5.644;2023-03-21T03:55:35;100615.00;;;14.67;60.68
36260;BME280;22296;50.824;5.644;2023-03-21T03:58:10;100622.50;;;14.67;60.57
36260;BME280;22296;50.824;5.644;2023-03-21T04:00:51;100618.59;;;14.68;60.61
36260;BME280;22296;50.824;5.644;2023-03-21T04:03:18;100615.81;;;14.68;60.63
36260;BME280;22296;50.824;5.644;2023-03-21T04:05:45;100620.06;;;14.65;60.56
36260;BME280;22296;50.824;5.644;2023-03-21T04:08:14;100616.47;;;14.65;60.58
36260;BME280;22296;50.824;5.644;2023-03-21T04:10:46;100618.41;;;14.64;60.71
36260;BME280;22296;50.824;5.644;2023-03-21T04:13:13;100612.03;;;14.64;60.59
36260;BME280;22296;50.824;5.644;2023-03-21T04:15:58;100609.25;;;14.64;60.69
36260;BME280;22296;50.824;5.644;2023-03-21T04:18:26;100623.13;;;14.64;60.61
36260;BME280;22296;50.824;5.644;2023-03-21T04:20:53;100611.25;;;14.63;60.62
36260;BME280;22296;50.824;5.644;2023-03-21T04:23:20;100615.97;;;14.63;60.53
36260;BME280;22296;50.824;5.644;2023-03-21T04:25:48;100608.78;;;14.62;60.67
36260;BME280;22296;50.824;5.644;2023-03-21T04:28:33;100607.97;;;14.61;60.87
36260;BME280;22296;50.824;5.644;2023-03-21T04:31:22;100611.56;;;14.62;60.70
36260;BME280;22296;50.824;5.644;2023-03-21T04:34:03;100607.13;;;14.61;60.70
36260;BME280;22296;50.824;5.644;2023-03-21T04:36:31;100600.28;;;14.58;60.94
36260;BME280;22296;50.824;5.644;2023-03-21T04:39:06;100606.34;;;14.60;60.68
36260;BME280;22296;50.824;5.644;2023-03-21T04:41:40;100602.75;;;14.60;60.71
36260;BME280;22296;50.824;5.644;2023-03-21T04:44:08;100607.13;;;14.61;60.69
36260;BME280;22296;50.824;5.644;2023-03-21T04:46:35;100617.44;;;14.60;60.71
36260;BME280;22296;50.824;5.644;2023-03-21T04:49:03;100611.91;;;14.60;60.69
36260;BME280;22296;50.824;5.644;2023-03-21T04:51:30;100616.44;;;14.56;60.77
36260;BME280;22296;50.824;5.644;2023-03-21T04:53:57;100616.09;;;14.58;60.52
36260;BME280;22296;50.824;5.644;2023-03-21T04:56:25;100624.44;;;14.58;60.65
36260;BME280;22296;50.824;5.644;2023-03-21T04:58:58;100624.44;;;14.58;60.62
36260;BME280;22296;50.824;5.644;2023-03-21T05:01:26;100636.69;;;14.57;60.68
36260;BME280;22296;50.824;5.644;2023-03-21T05:04:00;100637.81;;;14.56;60.73
36260;BME280;22296;50.824;5.644;2023-03-21T05:06:30;100636.19;;;14.55;60.70
36260;BME280;22296;50.824;5.644;2023-03-21T05:08:58;100636.19;;;14.55;60.69
36260;BME280;22296;50.824;5.644;2023-03-21T05:11:26;100645.31;;;14.55;60.72
36260;BME280;22296;50.824;5.644;2023-03-21T05:13:53;100640.09;;;14.54;60.70
36260;BME280;22296;50.824;5.644;2023-03-21T05:16:20;100636.19;;;14.55;60.61
36260;BME280;22296;50.824;5.644;2023-03-21T05:18:52;100630.13;;;14.53;60.83
36260;BME280;22296;50.824;5.644;2023-03-21T05:21:22;100623.47;;;14.54;60.75
36260;BME280;22296;50.824;5.644;2023-03-21T05:23:49;100616.25;;;14.53;60.76
36260;BME280;22296;50.824;5.644;2023-03-21T05:26:24;100614.66;;;14.52;60.68
36260;BME280;22296;50.824;5.644;2023-03-21T05:29:04;100608.28;;;14.51;60.87
36260;BME280;22296;50.824;5.644;2023-03-21T05:31:30;100599.44;;;14.49;60.91
36260;BME280;22296;50.824;5.644;2023-03-21T05:34:04;100595.53;;;14.50;60.90
36260;BME280;22296;50.824;5.644;2023-03-21T05:36:31;100601.91;;;14.51;61.03
36260;BME280;22296;50.824;5.644;2023-03-21T05:39:04;100585.75;;;14.53;60.86
36260;BME280;22296;50.824;5.644;2023-03-21T05:41:35;100591.84;;;14.72;60.80
36260;BME280;22296;50.824;5.644;2023-03-21T05:44:03;100592.47;;;14.60;61.21
36260;BME280;22296;50.824;5.644;2023-03-21T05:46:30;100599.78;;;14.56;61.32
36260;BME280;22296;50.824;5.644;2023-03-21T05:48:57;100590.97;;;14.54;61.23
36260;BME280;22296;50.824;5.644;2023-03-21T05:51:27;100590.81;;;14.51;61.42
36260;BME280;22296;50.824;5.644;2023-03-21T05:53:54;100591.63;;;14.51;61.16
36260;BME280;22296;50.824;5.644;2023-03-21T05:56:21;100590.31;;;14.49;61.35
36260;BME280;22296;50.824;5.644;2023-03-21T05:58:55;100589.81;;;14.47;61.37
36260;BME280;22296;50.824;5.644;2023-03-21T06:01:23;100587.03;;;14.47;61.15
36260;BME280;22296;50.824;5.644;2023-03-21T06:04:00;100593.72;;;14.46;61.14
36260;BME280;22296;50.824;5.644;2023-03-21T06:06:28;100587.38;;;14.45;61.24
36260;BME280;22296;50.824;5.644;2023-03-21T06:08:58;100585.72;;;14.44;61.26
36260;BME280;22296;50.824;5.644;2023-03-21T06:11:31;100582.13;;;14.44;61.18
36260;BME280;22296;50.824;5.644;2023-03-21T06:14:28;100581.16;;;14.40;61.18
36260;BME280;22296;50.824;5.644;2023-03-21T06:17:12;100593.56;;;14.42;61.11
36260;BME280;22296;50.824;5.644;2023-03-21T06:19:45;100581.63;;;14.42;61.28
36260;BME280;22296;50.824;5.644;2023-03-21T06:22:20;100585.53;;;14.41;61.18
36260;BME280;22296;50.824;5.644;2023-03-21T06:24:49;100591.09;;;14.41;61.11
36260;BME280;22296;50.824;5.644;2023-03-21T06:27:16;100585.53;;;14.41;61.09
36260;BME280;22296;50.824;5.644;2023-03-21T06:29:54;100585.53;;;14.41;61.13
36260;BME280;22296;50.824;5.644;2023-03-21T06:32:21;100587.84;;;14.39;61.17
36260;BME280;22296;50.824;5.644;2023-03-21T06:34:53;100593.38;;;14.39;61.13
36260;BME280;22296;50.824;5.644;2023-03-21T06:37:20;100586.22;;;14.38;61.07
36260;BME280;22296;50.824;5.644;2023-03-21T06:39:46;100591.75;;;14.38;61.02
36260;BME280;22296;50.824;5.644;2023-03-21T06:42:13;100594.03;;;14.44;61.28
36260;BME280;22296;50.824;5.644;2023-03-21T06:44:42;100585.63;;;14.75;60.65
36260;BME280;22296;50.824;5.644;2023-03-21T06:47:12;100585.78;;;14.87;60.45
36260;BME280;22296;50.824;5.644;2023-03-21T06:49:41;100585.47;;;14.89;60.66
36260;BME280;22296;50.824;5.644;2023-03-21T06:52:11;100584.47;;;14.84;60.82
36260;BME280;22296;50.824;5.644;2023-03-21T06:54:38;100578.44;;;14.91;60.53
36260;BME280;22296;50.824;5.644;2023-03-21T06:57:14;100583.53;;;14.98;60.53
36260;BME280;22296;50.824;5.644;2023-03-21T06:59:41;100580.09;;;15.09;60.41
36260;BME280;22296;50.824;5.644;2023-03-21T07:02:12;100588.91;;;14.94;60.49
36260;BME280;22296;50.824;5.644;2023-03-21T07:04:45;100579.75;;;14.85;60.62
36260;BME280;22296;50.824;5.644;2023-03-21T07:07:17;100581.38;;;14.86;60.51
36260;BME280;22296;50.824;5.644;2023-03-21T07:09:44;100580.56;;;14.86;60.42
36260;BME280;22296;50.824;5.644;2023-03-21T07:12:11;100582.03;;;14.83;60.59
36260;BME280;22296;50.824;5.644;2023-03-21T07:14:56;100581.69;;;14.76;60.90
36260;BME280;22296;50.824;5.644;2023-03-21T07:17:23;100582.34;;;14.73;60.74
36260;BME280;22296;50.824;5.644;2023-03-21T07:19:50;100586.75;;;14.65;60.85
36260;BME280;22296;50.824;5.644;2023-03-21T07:22:18;100584.47;;;14.67;60.95
36260;BME280;22296;50.824;5.644;2023-03-21T07:24:45;100588.41;;;14.66;60.90
36260;BME280;22296;50.824;5.644;2023-03-21T07:27:31;100591.81;;;14.63;60.84
36260;BME280;22296;50.824;5.644;2023-03-21T07:29:58;100593.78;;;14.63;60.98
36260;BME280;22296;50.824;5.644;2023-03-21T07:32:25;100594.59;;;14.63;60.75
36260;BME280;22296;50.824;5.644;2023-03-21T07:34:55;100591.94;;;14.58;60.86
36260;BME280;22296;50.824;5.644;2023-03-21T07:37:22;100589.69;;;14.60;60.66
36260;BME280;22296;50.824;5.644;2023-03-21T07:39:51;100594.41;;;14.60;60.73
36260;BME280;22296;50.824;5.644;2023-03-21T07:42:18;100600.63;;;14.57;60.82
36260;BME280;22296;50.824;5.644;2023-03-21T07:44:46;100607.00;;;14.57;60.76
36260;BME280;22296;50.824;5.644;2023-03-21T07:47:12;100602.09;;;14.54;60.74
36260;BME280;22296;50.824;5.644;2023-03-21T07:49:39;100601.25;;;14.54;60.67
36260;BME280;22296;50.824;5.644;2023-03-21T07:52:06;100606.81;;;14.54;60.50
36260;BME280;22296;50.824;5.644;2023-03-21T07:54:33;100607.63;;;14.54;60.86
36260;BME280;22296;50.824;5.644;2023-03-21T07:57:00;100610.22;;;14.51;60.81
36260;BME280;22296;50.824;5.644;2023-03-21T07:59:27;100605.81;;;14.50;60.69
36260;BME280;22296;50.824;5.644;2023-03-21T08:01:53;100602.22;;;14.49;60.92
36260;BME280;22296;50.824;5.644;2023-03-21T08:04:20;100604.19;;;14.49;60.68
36260;BME280;22296;50.824;5.644;2023-03-21T08:06:49;100617.56;;;14.47;60.85
36260;BME280;22296;50.824;5.644;2023-03-21T08:09:16;100612.00;;;14.47;60.78
36260;BME280;22296;50.824;5.644;2023-03-21T08:11:43;100611.22;;;14.46;60.71
36260;BME280;22296;50.824;5.644;2023-03-21T08:14:10;100611.84;;;14.43;60.80
36260;BME280;22296;50.824;5.644;2023-03-21T08:16:36;100615.75;;;14.42;60.94
36260;BME280;22296;50.824;5.644;2023-03-21T08:19:03;100606.59;;;14.42;60.94
36260;BME280;22296;50.824;5.644;2023-03-21T08:21:30;100609.38;;;14.42;60.83
36260;BME280;22296;50.824;5.644;2023-03-21T08:23:57;100606.94;;;14.40;61.02
36260;BME280;22296;50.824;5.644;2023-03-21T08:26:23;100599.75;;;14.39;61.03
36260;BME280;22296;50.824;5.644;2023-03-21T08:28:52;100594.19;;;14.39;60.82
36260;BME280;22296;50.824;5.644;2023-03-21T08:31:18;100593.38;;;14.39;60.91
36260;BME280;22296;50.824;5.644;2023-03-21T08:33:47;100597.31;;;14.38;61.03
36260;BME280;22296;50.824;5.644;2023-03-21T08:36:20;100580.66;;;14.38;60.93
36260;BME280;22296;50.824;5.644;2023-03-21T08:38:47;100573.47;;;14.37;61.11
36260;BME280;22296;50.824;5.644;2023-03-21T08:41:14;100579.84;;;14.37;61.07
36260;BME280;22296;50.824;5.644;2023-03-21T08:43:41;100571.81;;;14.36;60.94
36260;BME280;22296;50.824;5.644;2023-03-21T08:46:08;100579.84;;;14.37;60.98
36260;BME280;22296;50.824;5.644;2023-03-21T08:48:35;100582.09;;;14.35;61.10
36260;BME280;22296;50.824;5.644;2023-03-21T08:51:04;100571.81;;;14.36;60.97
36260;BME280;22296;50.824;5.644;2023-03-21T08:53:32;100569.06;;;14.36;61.09
36260;BME280;22296;50.824;5.644;2023-03-21T08:55:59;100573.00;;;14.35;61.05
36260;BME280;22296;50.824;5.644;2023-03-21T08:58:26;100571.81;;;14.36;60.97
36260;BME280;22296;50.824;5.644;2023-03-21T09:00:52;100563.00;;;14.34;61.09
36260;BME280;22296;50.824;5.644;2023-03-21T09:03:19;100559.13;;;14.35;61.09
36260;BME280;22296;50.824;5.644;2023-03-21T09:05:46;100563.00;;;14.34;61.07
36260;BME280;22296;50.824;5.644;2023-03-21T09:08:13;100561.06;;;14.34;60.90
36260;BME280;22296;50.824;5.644;2023-03-21T09:10:40;100556.66;;;14.33;60.95
36260;BME280;22296;50.824;5.644;2023-03-21T09:13:07;100548.63;;;14.32;61.05
36260;BME280;22296;50.824;5.644;2023-03-21T09:15:34;100556.94;;;14.32;61.09
36260;BME280;22296;50.824;5.644;2023-03-21T09:18:02;100548.63;;;14.32;61.02
36260;BME280;22296;50.824;5.644;2023-03-21T09:20:39;100549.44;;;14.32;61.07
36260;BME280;22296;50.824;5.644;2023-03-21T09:23:06;100550.28;;;14.33;60.86
36260;BME280;22296;50.824;5.644;2023-03-21T09:25:33;100550.28;;;14.33;61.04
36260;BME280;22296;50.824;5.644;2023-03-21T09:28:00;100542.25;;;14.31;60.82
36260;BME280;22296;50.824;5.644;2023-03-21T09:30:27;100541.44;;;14.31;61.00
36260;BME280;22296;50.824;5.644;2023-03-21T09:33:00;100536.72;;;14.31;60.98
36260;BME280;22296;50.824;5.644;2023-03-21T09:35:29;100533.63;;;14.33;60.73
36260;BME280;22296;50.824;5.644;2023-03-21T09:37:56;100530.84;;;14.33;60.92
36260;BME280;22296;50.824;5.644;2023-03-21T09:49:03;100519.59;;;14.29;60.97
36260;BME280;22296;50.824;5.644;2023-03-21T09:51:38;100510.63;;;14.32;60.89
36260;BME280;22296;50.824;5.644;2023-03-21T09:54:15;100519.75;;;14.33;60.84
36260;BME280;22296;50.824;5.644;2023-03-21T09:56:44;100508.16;;;14.31;60.71
36260;BME280;22296;50.824;5.644;2023-03-21T09:59:22;100505.06;;;14.32;60.80
36260;BME280;22296;50.824;5.644;2023-03-21T10:01:53;100512.06;;;14.29;60.91
36260;BME280;22296;50.824;5.644;2023-03-21T10:04:23;100506.19;;;14.31;60.85
36260;BME280;22296;50.824;5.644;2023-03-21T10:06:59;100501.47;;;14.32;60.98
36260;BME280;22296;50.824;5.644;2023-03-21T10:09:28;100495.41;;;14.29;60.76
36260;BME280;22296;50.824;5.644;2023-03-21T10:12:01;100497.88;;;14.31;60.83
36260;BME280;22296;50.824;5.644;2023-03-21T10:14:47;100488.72;;;14.31;60.72
36260;BME280;22296;50.824;5.644;2023-03-21T10:18:04;100482.69;;;14.28;60.97
36260;BME280;22296;50.824;5.644;2023-03-21T10:20:34;100470.13;;;14.31;60.85
36260;BME280;22296;50.824;5.644;2023-03-21T10:23:06;100473.22;;;14.29;60.75
36260;BME280;22296;50.824;5.644;2023-03-21T10:25:38;100481.06;;;14.27;60.94
36260;BME280;22296;50.824;5.644;2023-03-21T10:28:10;100488.25;;;14.28;60.98
36260;BME280;22296;50.824;5.644;2023-03-21T10:30:44;100484.97;;;14.26;60.83
36260;BME280;22296;50.824;5.644;2023-03-21T10:33:14;100490.50;;;14.26;60.79
36260;BME280;22296;50.824;5.644;2023-03-21T10:35:47;100492.16;;;14.27;60.87
36260;BME280;22296;50.824;5.644;2023-03-21T10:38:17;100495.28;;;14.26;60.83
36260;BME280;22296;50.824;5.644;2023-03-21T10:40:45;100489.72;;;14.26;60.92
36260;BME280;22296;50.824;5.644;2023-03-21T10:45:44;100490.50;;;14.26;60.86
36260;BME280;22296;50.824;5.644;2023-03-21T10:48:11;100496.06;;;14.26;60.91
36260;BME280;22296;50.824;5.644;2023-03-21T10:50:40;100500.00;;;14.25;60.61
36260;BME280;22296;50.824;5.644;2023-03-21T10:53:18;100493.81;;;14.28;60.74
36260;BME280;22296;50.824;5.644;2023-03-21T10:55:50;100483.34;;;14.25;60.88
36260;BME280;22296;50.824;5.644;2023-03-21T10:58:20;100497.69;;;14.27;60.73
36260;BME280;22296;50.824;5.644;2023-03-21T11:00:57;100496.88;;;14.27;60.65
36260;BME280;22296;50.824;5.644;2023-03-21T11:03:29;100500.97;;;14.29;60.50
36260;BME280;22296;50.824;5.644;2023-03-21T11:06:29;100478.94;;;14.24;60.73
36260;BME280;22296;50.824;5.644;2023-03-21T11:11:37;100473.88;;;14.26;60.71
36260;BME280;22296;50.824;5.644;2023-03-21T11:14:11;100484.47;;;14.24;60.65
36260;BME280;22296;50.824;5.644;2023-03-21T11:16:49;100495.56;;;14.24;60.69
36260;BME280;22296;50.824;5.644;2023-03-21T11:19:25;100485.59;;;14.23;61.04
36260;BME280;22296;50.824;5.644;2023-03-21T11:21:55;100483.34;;;14.25;60.64
36260;BME280;22296;50.824;5.644;2023-03-21T11:24:27;100485.59;;;14.23;60.58
36260;BME280;22296;50.824;5.644;2023-03-21T11:26:56;100480.06;;;14.23;60.71
36260;BME280;22296;50.824;5.644;2023-03-21T11:29:33;100476.16;;;14.24;60.64
36260;BME280;22296;50.824;5.644;2023-03-21T11:34:48;100484.97;;;14.26;60.68
36260;BME280;22296;50.824;5.644;2023-03-21T11:39:46;100488.25;;;14.28;60.41
36260;BME280;22296;50.824;5.644;2023-03-21T11:42:29;100481.06;;;14.27;60.40
36260;BME280;22296;50.824;5.644;2023-03-21T11:45:00;100479.41;;;14.26;60.50
36260;BME280;22296;50.824;5.644;2023-03-21T11:47:28;100478.78;;;14.29;60.38
36260;BME280;22296;50.824;5.644;2023-03-21T11:49:57;100484.31;;;14.29;60.55
36260;BME280;22296;50.824;5.644;2023-03-21T11:52:37;100475.19;;;14.29;60.45
36260;BME280;22296;50.824;5.644;2023-03-21T11:55:19;100473.88;;;14.26;60.30
36260;BME280;22296;50.824;5.644;2023-03-21T11:58:09;100465.25;;;14.28;60.26
36260;BME280;22296;50.824;5.644;2023-03-21T12:00:51;100460.50;;;14.28;60.34
36260;BME280;22296;50.824;5.644;2023-03-21T12:05:59;100456.09;;;14.27;60.41
36260;BME280;22296;50.824;5.644;2023-03-21T12:08:31;100462.13;;;14.29;60.37
36260;BME280;22296;50.824;5.644;2023-03-21T12:11:14;100453.81;;;14.29;60.36
36260;BME280;22296;50.824;5.644;2023-03-21T12:22:34;100437.69;;;14.32;60.11
36260;BME280;22296;50.824;5.644;2023-03-21T12:33:35;100415.47;;;14.32;60.23
36260;BME280;22296;50.824;5.644;2023-03-21T12:36:31;100405.53;;;14.31;60.46
36260;BME280;22296;50.824;5.644;2023-03-21T12:42:12;100388.25;;;14.34;60.16
36260;BME280;22296;50.824;5.644;2023-03-21T12:44:49;100389.38;;;14.33;60.38
36260;BME280;22296;50.824;5.644;2023-03-21T12:47:33;100380.75;;;14.34;60.20
36260;BME280;22296;50.824;5.644;2023-03-21T12:50:13;100392.16;;;14.33;60.33
36260;BME280;22296;50.824;5.644;2023-03-21T12:52:46;100383.84;;;14.33;60.30
36260;BME280;22296;50.824;5.644;2023-03-21T12:55:32;100382.72;;;14.34;60.35
36260;BME280;22296;50.824;5.644;2023-03-21T12:58:18;100385.47;;;14.34;60.46
36260;BME280;22296;50.824;5.644;2023-03-21T13:00:48;100383.53;;;14.34;60.19
36260;BME280;22296;50.824;5.644;2023-03-21T13:03:28;100385.47;;;14.34;60.47
36260;BME280;22296;50.824;5.644;2023-03-21T13:06:08;100389.53;;;14.53;60.04
36260;BME280;22296;50.824;5.644;2023-03-21T13:08:40;100382.44;;;14.90;59.86
36260;BME280;22296;50.824;5.644;2023-03-21T13:11:15;100379.81;;;15.02;59.88
36260;BME280;22296;50.824;5.644;2023-03-21T13:14:05;100372.44;;;15.06;59.44
36260;BME280;22296;50.824;5.644;2023-03-21T13:16:39;100378.09;;;15.18;59.39
36260;BME280;22296;50.824;5.644;2023-03-21T13:19:15;100378.41;;;15.25;59.28
36260;BME280;22296;50.824;5.644;2023-03-21T13:22:06;100384.41;;;15.36;59.29
36260;BME280;22296;50.824;5.644;2023-03-21T13:24:47;100377.56;;;15.33;58.75
36260;BME280;22296;50.824;5.644;2023-03-21T13:32:37;100383.44;;;15.70;57.49
36260;BME280;22296;50.824;5.644;2023-03-21T13:35:23;100387.13;;;15.82;57.15
36260;BME280;22296;50.824;5.644;2023-03-21T13:38:21;100375.75;;;15.96;56.90
36260;BME280;22296;50.824;5.644;2023-03-21T13:40:59;100376.50;;;16.05;56.59
36260;BME280;22296;50.824;5.644;2023-03-21T13:54:28;100358.09;;;16.33;56.07
36260;BME280;22296;50.824;5.644;2023-03-21T13:56:58;100353.03;;;16.35;56.14
36260;BME280;22296;50.824;5.644;2023-03-21T13:59:43;100344.91;;;16.42;55.88
36260;BME280;22296;50.824;5.644;2023-03-21T14:05:19;100329.75;;;16.52;55.79
36260;BME280;22296;50.824;5.644;2023-03-21T14:07:51;100328.44;;;16.58;55.55
36260;BME280;22296;50.824;5.644;2023-03-21T14:10:33;100332.13;;;16.62;55.54
36260;BME280;22296;50.824;5.644;2023-03-21T14:13:01;100325.88;;;16.65;55.58
36260;BME280;22296;50.824;5.644;2023-03-21T14:15:41;100316.50;;;16.70;55.48
36260;BME280;22296;50.824;5.644;2023-03-21T14:18:22;100317.44;;;16.74;55.37
36260;BME280;22296;50.824;5.644;2023-03-21T14:21:00;100306.56;;;16.81;54.99
36260;BME280;22296;50.824;5.644;2023-03-21T14:23:29;100314.69;;;16.86;55.25
36260;BME280;22296;50.824;5.644;2023-03-21T14:25:55;100311.19;;;16.89;55.27
36260;BME280;22296;50.824;5.644;2023-03-21T14:28:24;100300.31;;;16.96;54.82
36260;BME280;22296;50.824;5.644;2023-03-21T14:30:56;100296.81;;;16.99;55.05
36260;BME280;22296;50.824;5.644;2023-03-21T14:35:58;100302.63;;;17.06;54.83
36260;BME280;22296;50.824;5.644;2023-03-21T14:38:33;100302.88;;;17.13;54.75
36260;BME280;22296;50.824;5.644;2023-03-21T14:41:01;100286.63;;;17.15;54.99
36260;BME280;22296;50.824;5.644;2023-03-21T14:43:28;100283.84;;;17.15;54.66
36260;BME280;22296;50.824;5.644;2023-03-21T14:45:56;100289.88;;;17.17;54.79
36260;BME280;22296;50.824;5.644;2023-03-21T14:48:31;100277.44;;;17.15;54.83
36260;BME280;22296;50.824;5.644;2023-03-21T14:51:04;100277.69;;;17.22;54.65
36260;BME280;22296;50.824;5.644;2023-03-21T14:53:35;100280.56;;;17.25;54.72
36260;BME280;22296;50.824;5.644;2023-03-21T14:58:41;100281.97;;;17.31;54.86
36260;BME280;22296;50.824;5.644;2023-03-21T15:01:16;100273.34;;;17.36;54.32